Time;durP1;ratioP1;P1;durP2;ratioP2;P2;SDS_P1;SDS_P2;PMS_P1;PMS_P2;Temp;Humidity;BMP_temperature;BMP_pressure;BME280_temperature;BME280_humidity;BME280_pressure;Samples;Min_cycle;Max_cycle;Signal;HPM_P1;HPM_P2
2022/04/10 00:01:24;;;;;;;12.60;5.30;;;;;;;1.31;89.26;101854.25;4981571;28;20392;-84
2022/04/10 00:03:49;;;;;;;12.35;5.82;;;;;;;1.31;89.51;101851.69;4973058;28;20325;-84
2022/04/10 00:06:15;;;;;;;14.05;6.15;;;;;;;1.29;89.45;101852.50;4984563;28;20109;-84
2022/04/10 00:08:40;;;;;;;12.73;5.60;;;;;;;1.27;88.87;101849.88;4971907;28;20499;-84
2022/04/10 00:11:06;;;;;;;15.00;6.38;;;;;;;1.24;88.42;101857.44;4987867;28;20042;-84
2022/04/10 00:13:32;;;;;;;13.32;5.90;;;;;;;1.19;88.69;101843.66;4973659;28;20082;-84
2022/04/10 00:15:57;;;;;;;15.43;6.80;;;;;;;1.18;88.85;101855.56;4972183;28;20078;-84
2022/04/10 00:18:22;;;;;;;12.13;5.75;;;;;;;1.18;89.00;101860.69;5008885;28;20022;-84
2022/04/10 00:20:48;;;;;;;14.60;6.00;;;;;;;1.16;89.46;101853.81;4977586;28;20029;-84
2022/04/10 00:23:14;;;;;;;12.45;6.10;;;;;;;1.15;89.75;101855.50;4969840;28;20491;-84
2022/04/10 00:25:39;;;;;;;12.82;6.13;;;;;;;1.13;89.19;101853.69;4988107;28;20042;-84
2022/04/10 00:28:04;;;;;;;14.75;5.82;;;;;;;1.11;89.04;101851.09;4972048;28;20447;-84
2022/04/10 00:30:32;;;;;;;12.30;6.00;;;;;;;1.09;89.07;101852.72;4972061;28;20050;-84
2022/04/10 00:32:57;;;;;;;18.80;6.63;;;;;;;1.10;89.84;101861.25;4989468;28;20344;-84
2022/04/10 00:35:22;;;;;;;13.50;6.15;;;;;;;1.08;89.92;101855.25;4994600;28;20034;-84
2022/04/10 00:37:48;;;;;;;14.20;6.40;;;;;;;1.05;89.17;101858.56;4987069;28;20082;-84
2022/04/10 00:40:14;;;;;;;17.95;6.30;;;;;;;1.05;90.33;101852.59;4975826;28;20163;-84
2022/04/10 00:42:45;;;;;;;13.23;6.45;;;;;;;1.02;89.77;101849.97;4970863;28;20445;-84
2022/04/10 00:45:11;;;;;;;14.15;6.03;;;;;;;1.00;89.75;101849.91;4980009;28;20030;-84
2022/04/10 00:47:36;;;;;;;14.73;6.50;;;;;;;1.00;90.14;101846.47;4978291;28;20041;-84
2022/04/10 00:50:06;;;;;;;15.57;6.20;;;;;;;0.96;89.80;101839.53;5001607;28;20077;-84
2022/04/10 00:52:32;;;;;;;15.85;6.32;;;;;;;0.96;90.19;101842.94;4973393;28;20034;-84
2022/04/10 00:54:58;;;;;;;15.23;6.43;;;;;;;0.95;89.82;101843.81;4977908;28;20031;-84
2022/04/10 00:57:24;;;;;;;17.33;6.32;;;;;;;0.94;89.44;101846.28;4971208;28;20031;-84
2022/04/10 00:59:49;;;;;;;14.27;6.57;;;;;;;0.94;89.53;101846.28;4976384;28;20026;-84
2022/04/10 01:02:15;;;;;;;19.75;6.95;;;;;;;0.93;89.34;101842.88;4971486;28;20022;-84
2022/04/10 01:04:40;;;;;;;14.45;6.22;;;;;;;0.92;89.70;101841.13;4982737;28;20030;-84
2022/04/10 01:07:06;;;;;;;16.80;6.65;;;;;;;0.90;89.68;101841.91;4975374;28;20107;-84
2022/04/10 01:09:32;;;;;;;14.75;6.50;;;;;;;0.90;90.19;101844.44;4974568;28;20102;-84
2022/04/10 01:11:58;;;;;;;12.23;6.38;;;;;;;0.87;89.95;101846.91;4962117;28;20031;-84
2022/04/10 01:14:23;;;;;;;15.98;6.60;;;;;;;0.84;89.31;101844.25;4993323;28;20026;-84
2022/04/10 01:16:49;;;;;;;14.25;6.28;;;;;;;0.83;90.28;101842.53;4966877;28;20070;-84
2022/04/10 01:19:16;;;;;;;15.02;6.43;;;;;;;0.81;89.47;101844.19;4976556;28;20027;-84
2022/04/10 01:21:46;;;;;;;13.80;6.22;;;;;;;0.76;89.74;101842.31;4986413;28;20027;-84
2022/04/10 01:24:15;;;;;;;15.13;6.18;;;;;;;0.75;89.68;101845.69;4972335;28;20027;-84
2022/04/10 01:26:41;;;;;;;17.33;6.65;;;;;;;0.75;89.85;101850.78;4979219;28;20562;-84
2022/04/10 01:29:08;;;;;;;15.00;6.53;;;;;;;0.75;90.38;101848.25;4981875;28;20118;-84
2022/04/10 01:31:35;;;;;;;16.65;7.20;;;;;;;0.74;90.10;101845.66;4974559;28;20026;-84
2022/04/10 01:34:03;;;;;;;13.13;6.28;;;;;;;0.71;90.10;101851.53;4986091;28;20030;-84
2022/04/10 01:36:30;;;;;;;17.15;6.57;;;;;;;0.70;89.88;101857.44;5005630;28;20473;-84
2022/04/10 01:38:57;;;;;;;13.55;6.13;;;;;;;0.69;89.68;101855.69;4977679;28;20105;-84
2022/04/10 01:41:25;;;;;;;14.70;6.45;;;;;;;0.69;90.13;101855.69;4982366;28;20029;-84
2022/04/10 01:43:52;;;;;;;19.30;7.18;;;;;;;0.68;90.52;101858.22;4983695;28;20541;-84
2022/04/10 01:46:18;;;;;;;14.20;6.13;;;;;;;0.69;90.50;101853.16;4971008;28;20114;-84
2022/04/10 01:48:43;;;;;;;15.48;6.32;;;;;;;0.71;91.16;101854.06;4970641;28;20122;-84
2022/04/10 01:51:09;;;;;;;17.60;6.80;;;;;;;0.70;90.89;101852.34;4979704;28;20424;-84
2022/04/10 01:53:35;;;;;;;15.07;6.30;;;;;;;0.69;90.50;101857.38;4984836;28;20042;-84
2022/04/10 01:56:04;;;;;;;15.32;6.35;;;;;;;0.69;90.19;101855.69;4973740;28;20023;-84
2022/04/10 01:58:30;;;;;;;14.20;6.68;;;;;;;0.67;90.07;101848.84;4979123;28;20039;-84
2022/04/10 02:00:55;;;;;;;16.10;6.40;;;;;;;0.68;90.73;101860.78;4971078;28;20077;-84
2022/04/10 02:03:21;;;;;;;11.73;6.05;;;;;;;0.68;90.45;101870.97;4968907;28;20027;-84
2022/04/10 02:05:46;;;;;;;14.60;6.30;;;;;;;0.67;90.37;101865.00;4982728;28;20023;-84
2022/04/10 02:08:13;;;;;;;12.82;5.90;;;;;;;0.66;90.77;101862.41;4981935;28;20500;-84
2022/04/10 02:10:38;;;;;;;16.08;6.60;;;;;;;0.65;90.60;101869.19;4987118;28;20082;-84
2022/04/10 02:13:04;;;;;;;15.27;6.13;;;;;;;0.60;90.30;101869.84;4978282;28;20027;-84
2022/04/10 02:15:30;;;;;;;17.17;6.85;;;;;;;0.61;90.56;101872.47;4970501;28;20034;-84
2022/04/10 02:17:55;;;;;;;13.00;6.43;;;;;;;0.61;90.74;101866.50;4995295;28;20442;-84
2022/04/10 02:20:20;;;;;;;18.15;6.70;;;;;;;0.61;91.73;101869.03;4971488;28;20045;-84
2022/04/10 02:22:46;;;;;;;14.02;6.38;;;;;;;0.61;91.25;101875.03;4971843;28;20034;-84
2022/04/10 02:25:11;;;;;;;13.17;6.23;;;;;;;0.58;90.94;101872.34;4970470;28;20034;-84
2022/04/10 02:27:36;;;;;;;16.37;6.00;;;;;;;0.56;90.73;101863.78;4984913;28;20293;-84
2022/04/10 02:30:02;;;;;;;16.95;6.18;;;;;;;0.52;90.62;101861.94;4956236;28;20346;-84
2022/04/10 02:32:29;;;;;;;16.00;6.60;;;;;;;0.56;91.44;101870.56;4989968;28;20030;-84
2022/04/10 02:34:54;;;;;;;19.30;6.22;;;;;;;0.53;90.73;101868.78;4971431;28;20126;-84
2022/04/10 02:37:20;;;;;;;14.48;6.53;;;;;;;0.52;91.10;101872.16;4978149;28;20047;-84
2022/04/10 02:39:45;;;;;;;13.10;6.53;;;;;;;0.48;91.19;101867.75;4973991;28;20030;-84
2022/04/10 02:42:10;;;;;;;16.83;7.10;;;;;;;0.50;91.32;101878.88;4979672;28;20027;-84
2022/04/10 02:44:36;;;;;;;17.70;7.07;;;;;;;0.51;91.55;101878.06;4983119;28;20054;-84
2022/04/10 02:47:01;;;;;;;17.97;6.57;;;;;;;0.50;91.24;101876.31;4982414;28;20041;-84
2022/04/10 02:49:26;;;;;;;17.20;7.10;;;;;;;0.53;90.97;101878.13;4980288;28;20282;-84
2022/04/10 02:51:51;;;;;;;16.33;6.90;;;;;;;0.53;91.55;101885.78;4974330;28;20054;-84
2022/04/10 02:54:18;;;;;;;15.60;7.03;;;;;;;0.48;91.42;101877.94;4973834;28;20057;-84
2022/04/10 02:56:43;;;;;;;15.07;7.30;;;;;;;0.47;91.75;101878.78;4976501;28;20031;-83
2022/04/10 02:59:08;;;;;;;14.70;7.25;;;;;;;0.45;91.41;101882.09;4978654;28;20108;-83
2022/04/10 03:01:34;;;;;;;18.13;7.80;;;;;;;0.42;91.44;101892.16;4979397;28;20098;-84
2022/04/10 03:04:00;;;;;;;19.55;8.38;;;;;;;0.39;91.86;101887.84;4985762;28;20393;-83
2022/04/10 03:06:26;;;;;;;15.82;8.18;;;;;;;0.40;91.94;101892.16;4976232;28;20033;-83
2022/04/10 03:08:51;;;;;;;22.00;8.82;;;;;;;0.39;91.76;101892.97;4971982;28;20119;-83
2022/04/10 03:11:18;;;;;;;18.60;8.98;;;;;;;0.42;91.90;101894.72;4976884;28;20428;-83
2022/04/10 03:13:44;;;;;;;20.42;9.30;;;;;;;0.41;91.98;101898.13;4973503;28;20031;-83
2022/04/10 03:16:09;;;;;;;17.48;8.93;;;;;;;0.41;92.27;101898.94;4979395;28;20032;-83
2022/04/10 03:18:34;;;;;;;17.58;9.55;;;;;;;0.39;92.02;101900.59;4984779;28;20504;-84
2022/04/10 03:21:00;;;;;;;18.02;8.85;;;;;;;0.39;92.27;101895.50;4976299;28;20056;-83
2022/04/10 03:23:25;;;;;;;19.35;10.05;;;;;;;0.38;92.52;101893.75;4973187;28;20026;-83
2022/04/10 03:25:50;;;;;;;20.30;10.10;;;;;;;0.39;92.30;101898.94;4978617;28;20073;-83
2022/04/10 03:28:16;;;;;;;23.60;11.18;;;;;;;0.41;92.63;101893.84;4973257;28;20019;-83
2022/04/10 03:30:41;;;;;;;22.83;10.80;;;;;;;0.41;92.47;101900.66;4973247;28;20039;-83
2022/04/10 03:33:06;;;;;;;21.07;10.57;;;;;;;0.40;92.79;101902.34;4973023;28;20499;-83
2022/04/10 03:35:32;;;;;;;20.38;10.52;;;;;;;0.38;92.96;101893.75;4984353;28;20313;-83
2022/04/10 03:37:57;;;;;;;22.58;11.00;;;;;;;0.35;92.63;101901.28;4985736;28;20089;-84
2022/04/10 03:40:22;;;;;;;22.10;10.07;;;;;;;0.31;92.39;101902.00;4976526;28;20036;-83
2022/04/10 03:42:47;;;;;;;19.35;10.85;;;;;;;0.27;92.54;101897.63;4981327;28;20048;-83
2022/04/10 03:45:16;;;;;;;22.90;10.70;;;;;;;0.27;92.23;101903.56;4979524;28;20037;-83
2022/04/10 03:47:41;;;;;;;22.40;11.70;;;;;;;0.24;92.73;101905.16;4986127;28;20597;-83
2022/04/10 03:50:07;;;;;;;21.87;11.50;;;;;;;0.24;92.91;101905.16;4971345;28;20074;-83
2022/04/10 03:52:32;;;;;;;19.15;10.65;;;;;;;0.23;92.89;101908.53;4973408;28;20384;-83
2022/04/10 03:54:57;;;;;;;20.45;11.50;;;;;;;0.24;92.92;101910.25;4972787;28;20041;-83
2022/04/10 03:57:23;;;;;;;24.13;11.30;;;;;;;0.23;92.79;101908.53;4976434;28;20026;-83
2022/04/10 03:59:48;;;;;;;23.23;11.68;;;;;;;0.23;92.71;101913.63;4972851;28;20033;-83
2022/04/10 04:02:17;;;;;;;23.83;12.02;;;;;;;0.21;92.77;101916.09;4977068;28;20034;-83
2022/04/10 04:04:43;;;;;;;23.73;12.38;;;;;;;0.21;92.70;101925.44;4991970;28;20066;-83
2022/04/10 04:07:08;;;;;;;21.98;12.10;;;;;;;0.22;92.99;101929.72;4976042;28;20044;-83
2022/04/10 04:09:33;;;;;;;23.67;11.63;;;;;;;0.20;92.84;101923.72;4985137;28;20031;-84
2022/04/10 04:11:59;;;;;;;24.23;12.18;;;;;;;0.20;93.04;101919.50;4971720;28;20094;-83
2022/04/10 04:14:24;;;;;;;21.88;11.30;;;;;;;0.20;93.48;101918.63;5003950;28;20030;-83
2022/04/10 04:16:49;;;;;;;24.55;11.85;;;;;;;0.22;93.68;101925.50;4973049;28;20026;-83
2022/04/10 04:19:15;;;;;;;21.70;11.98;;;;;;;0.25;93.62;101927.31;4982439;28;20453;-84
2022/04/10 04:21:40;;;;;;;24.13;12.43;;;;;;;0.24;93.73;101925.56;4971561;28;20037;-84
2022/04/10 04:24:06;;;;;;;19.02;11.27;;;;;;;0.24;93.59;101931.53;5001152;28;20027;-83
2022/04/10 04:26:31;;;;;;;22.08;11.98;;;;;;;0.23;93.54;101936.56;4972420;28;20043;-84
2022/04/10 04:28:56;;;;;;;22.60;12.10;;;;;;;0.23;93.86;101929.78;4982576;28;20088;-84
2022/04/10 04:31:21;;;;;;;24.35;12.25;;;;;;;0.25;93.67;101927.31;4972017;28;20286;-84
2022/04/10 04:33:47;;;;;;;21.92;11.45;;;;;;;0.26;93.81;101934.13;4978658;28;20109;-84
2022/04/10 04:36:12;;;;;;;22.30;11.60;;;;;;;0.29;93.88;101936.78;4971980;28;20034;-84
2022/04/10 04:38:37;;;;;;;23.85;11.68;;;;;;;0.28;94.35;101943.56;4977611;28;20080;-84
2022/04/10 04:41:02;;;;;;;25.13;11.68;;;;;;;0.31;94.31;101940.25;4978456;28;20088;-83
2022/04/10 04:43:28;;;;;;;23.90;11.47;;;;;;;0.32;94.08;101944.56;4982251;28;20049;-84
2022/04/10 04:45:53;;;;;;;22.87;11.63;;;;;;;0.30;93.76;101947.03;4978281;28;20277;-84
2022/04/10 04:48:18;;;;;;;24.83;11.90;;;;;;;0.30;93.83;101939.38;4977674;28;20791;-84
2022/04/10 04:50:44;;;;;;;23.38;11.27;;;;;;;0.33;94.12;101947.16;4973128;28;20055;-84
2022/04/10 04:53:09;;;;;;;23.42;11.85;;;;;;;0.30;93.82;101944.50;4980381;28;20023;-84
2022/04/10 04:55:35;;;;;;;22.50;10.95;;;;;;;0.29;93.74;101949.53;4971671;28;20401;-84
2022/04/10 04:58:00;;;;;;;28.38;11.88;;;;;;;0.30;93.67;101941.06;4979938;28;20190;-83
2022/04/10 05:00:25;;;;;;;24.60;11.80;;;;;;;0.32;93.97;101950.53;4968991;28;20030;-84
2022/04/10 05:02:51;;;;;;;24.58;11.88;;;;;;;0.35;94.25;101947.19;4970063;28;20038;-84
2022/04/10 05:05:16;;;;;;;23.02;12.07;;;;;;;0.38;94.82;101945.63;4961442;28;20063;-83
2022/04/10 05:07:42;;;;;;;21.92;11.98;;;;;;;0.43;94.20;101945.78;4967771;28;20035;-84
2022/04/10 05:10:08;;;;;;;25.38;12.13;;;;;;;0.46;94.86;101950.13;4969491;28;20100;-84
2022/04/10 05:12:34;;;;;;;22.38;11.23;;;;;;;0.47;94.44;101951.88;4966056;28;20550;-84
2022/04/10 05:15:00;;;;;;;19.90;11.88;;;;;;;0.51;94.21;101961.34;4965635;28;20027;-84
2022/04/10 05:17:26;;;;;;;23.50;11.40;;;;;;;0.52;93.92;101955.44;4967164;28;20173;-84
2022/04/10 05:19:52;;;;;;;25.67;12.13;;;;;;;0.57;94.70;101962.44;4975287;28;20034;-84
2022/04/10 05:22:18;;;;;;;25.23;12.30;;;;;;;0.76;95.43;101956.28;4967197;28;20049;-84
2022/04/10 05:24:45;;;;;;;24.80;12.30;;;;;;;0.97;95.28;101963.78;4969498;28;20157;-83
2022/04/10 05:27:11;;;;;;;23.08;11.73;;;;;;;0.99;94.06;101970.69;4971280;28;20121;-84
2022/04/10 05:29:37;;;;;;;23.47;11.73;;;;;;;1.01;93.74;101968.19;4968310;28;20110;-83
2022/04/10 05:32:02;;;;;;;24.00;11.63;;;;;;;1.04;93.82;101974.25;4970123;28;20285;-84
2022/04/10 05:34:27;;;;;;;24.20;12.05;;;;;;;1.09;93.80;101982.91;4971134;28;20034;-83
2022/04/10 05:36:53;;;;;;;22.77;11.75;;;;;;;1.13;93.44;101972.00;4971191;28;20038;-84
2022/04/10 05:39:18;;;;;;;23.77;11.80;;;;;;;1.23;93.54;101977.44;4970978;28;20042;-84
2022/04/10 05:41:43;;;;;;;24.23;11.45;;;;;;;1.28;93.17;101981.88;4986111;28;20019;-83
2022/04/10 05:44:09;;;;;;;25.13;11.18;;;;;;;1.34;93.13;101981.19;4976361;28;20030;-83
2022/04/10 05:46:38;;;;;;;23.63;11.30;;;;;;;1.40;93.21;101986.50;4983306;28;20023;-84
2022/04/10 05:49:06;;;;;;;19.00;10.70;;;;;;;1.47;93.33;101986.72;4970421;28;20381;-83
2022/04/10 05:51:32;;;;;;;20.63;10.32;;;;;;;1.54;93.02;101992.91;4967159;28;20059;-84
2022/04/10 05:53:59;;;;;;;20.05;10.38;;;;;;;1.61;92.81;101991.41;4978818;28;20064;-84
2022/04/10 05:56:25;;;;;;;19.08;10.15;;;;;;;1.72;92.79;101997.69;4974024;28;20034;-84
2022/04/10 05:58:50;;;;;;;19.73;10.35;;;;;;;1.84;93.37;102006.59;5004450;28;20085;-83
2022/04/10 06:01:15;;;;;;;21.50;10.52;;;;;;;1.95;93.35;102007.81;4979599;28;20027;-84
2022/04/10 06:03:41;;;;;;;22.60;10.65;;;;;;;2.12;93.80;102008.28;4968945;28;20042;-84
2022/04/10 06:06:07;;;;;;;19.40;9.18;;;;;;;2.35;93.06;102014.97;4968735;28;20037;-84
2022/04/10 06:08:32;;;;;;;17.55;8.70;;;;;;;2.53;92.64;102017.16;4970898;28;20053;-84
2022/04/10 06:10:57;;;;;;;15.68;7.80;;;;;;;2.64;91.58;102015.78;4973124;28;20061;-83
2022/04/10 06:13:23;;;;;;;16.75;7.78;;;;;;;2.77;91.07;102017.84;4973740;28;20047;-84
2022/04/10 06:15:48;;;;;;;17.08;7.45;;;;;;;2.89;90.50;102016.41;4971241;28;20086;-84
2022/04/10 06:18:13;;;;;;;19.00;7.45;;;;;;;2.95;90.54;102022.56;4974833;28;20644;-84
2022/04/10 06:20:39;;;;;;;18.17;7.57;;;;;;;3.00;90.18;102015.88;5001414;28;20038;-84
2022/04/10 06:23:05;;;;;;;15.77;7.38;;;;;;;3.07;89.96;102024.59;4969864;28;20507;-84
2022/04/10 06:25:30;;;;;;;17.95;7.95;;;;;;;3.16;89.87;102029.94;4973812;28;20062;-84
2022/04/10 06:27:58;;;;;;;21.85;8.32;;;;;;;3.30;89.70;102031.16;4972868;28;20025;-84
2022/04/10 06:30:23;;;;;;;16.98;8.05;;;;;;;3.58;88.93;102023.31;5003484;28;20027;-84
2022/04/10 06:32:49;;;;;;;18.63;8.73;;;;;;;3.84;88.29;102035.88;4975952;28;20034;-85
2022/04/10 06:35:14;;;;;;;18.15;8.05;;;;;;;4.08;86.62;102041.56;4982126;28;20249;-84
2022/04/10 06:37:40;;;;;;;18.25;8.65;;;;;;;4.36;85.15;102033.63;4971970;28;20035;-85
2022/04/10 06:40:06;;;;;;;19.25;8.18;;;;;;;4.52;83.58;102034.78;4973269;28;20461;-84
2022/04/10 06:42:31;;;;;;;18.50;8.25;;;;;;;4.58;83.29;102040.03;4972230;28;20033;-84
2022/04/10 06:44:56;;;;;;;22.27;8.55;;;;;;;4.76;84.42;102042.97;4973851;28;20035;-84
2022/04/10 06:47:22;;;;;;;16.83;7.75;;;;;;;5.16;83.64;102049.72;4972679;28;20089;-84
2022/04/10 06:49:47;;;;;;;18.58;8.27;;;;;;;5.86;83.88;102044.88;4973890;28;20049;-84
2022/04/10 06:52:12;;;;;;;15.60;7.73;;;;;;;6.48;79.42;102043.19;4973370;28;20049;-84
2022/04/10 06:54:38;;;;;;;15.13;7.45;;;;;;;6.92;76.53;102043.66;4972963;28;20345;-84
2022/04/10 06:57:03;;;;;;;13.25;6.45;;;;;;;7.41;75.01;102045.00;4973529;28;20034;-84
2022/04/10 06:59:28;;;;;;;13.23;6.38;;;;;;;7.75;73.73;102047.84;4972752;28;20089;-84
2022/04/10 07:01:53;;;;;;;13.80;6.40;;;;;;;8.04;74.45;102046.34;4972853;28;20019;-85
2022/04/10 07:04:19;;;;;;;12.65;6.00;;;;;;;8.56;73.30;102047.47;4973739;28;20034;-85
2022/04/10 07:06:46;;;;;;;13.43;6.28;;;;;;;9.25;70.88;102047.63;4973714;28;20062;-85
2022/04/10 07:09:14;;;;;;;11.55;6.10;;;;;;;10.04;69.85;102052.75;4972110;28;20038;-84
2022/04/10 07:11:40;;;;;;;11.23;5.47;;;;;;;10.41;65.68;102053.56;4966282;28;20392;-85
2022/04/10 07:14:06;;;;;;;12.60;5.90;;;;;;;10.43;64.11;102060.50;4971090;28;20031;-85
2022/04/10 07:16:31;;;;;;;13.25;5.72;;;;;;;10.38;64.09;102064.81;4973460;28;20030;-85
2022/04/10 07:18:56;;;;;;;11.13;5.07;;;;;;;10.55;63.44;102067.34;4973520;28;20080;-85
2022/04/10 07:23:41;;;;;;;11.77;5.87;;;;;;;11.07;62.55;102066.22;4973295;28;20503;-85
2022/04/10 07:24:08;;;;;;;12.60;5.35;;;;;;;11.59;60.81;102060.66;4972776;28;20274;-85
2022/04/10 07:26:33;;;;;;;10.85;4.45;;;;;;;11.89;61.42;102062.13;4968847;28;20035;-85
2022/04/10 07:28:59;;;;;;;10.98;4.70;;;;;;;12.42;59.83;102061.56;4968862;28;20031;-84
2022/04/10 07:31:24;;;;;;;8.80;4.88;;;;;;;12.29;56.84;102059.97;4988023;28;20034;-85
2022/04/10 07:33:49;;;;;;;9.98;4.95;;;;;;;12.08;59.04;102073.19;4988439;28;20129;-84
2022/04/10 07:36:15;;;;;;;8.98;5.20;;;;;;;12.56;59.59;102075.25;4973094;28;20033;-84
2022/04/10 07:38:40;;;;;;;10.57;4.55;;;;;;;13.12;57.83;102075.38;4985556;28;20035;-84
2022/04/10 07:41:05;;;;;;;10.00;4.68;;;;;;;12.95;56.12;102076.50;4972891;28;20023;-85
2022/04/10 07:43:31;;;;;;;13.40;4.60;;;;;;;12.68;55.77;102086.41;4972782;28;20050;-85
2022/04/10 07:48:42;;;;;;;12.15;4.70;;;;;;;12.68;55.79;102089.88;4972957;28;20064;-85
2022/04/10 07:51:08;;;;;;;12.10;4.72;;;;;;;13.03;54.89;102090.25;4970954;28;20051;-85
2022/04/10 07:53:34;;;;;;;9.85;4.38;;;;;;;13.53;54.86;102091.28;4971344;28;20053;-85
2022/04/10 07:55:59;;;;;;;10.27;3.70;;;;;;;13.23;52.89;102100.44;5003008;28;20033;-85
2022/04/10 07:58:25;;;;;;;8.27;3.10;;;;;;;12.60;54.63;102108.16;4972950;28;20023;-85
2022/04/10 08:00:51;;;;;;;8.93;2.90;;;;;;;11.74;54.62;102104.69;4971533;28;20110;-85
2022/04/10 08:03:16;;;;;;;10.93;3.70;;;;;;;11.08;56.47;102116.38;4961590;28;20019;-85
2022/04/10 08:05:42;;;;;;;8.82;3.60;;;;;;;10.91;58.60;102121.66;4971730;28;20058;-85
2022/04/10 08:08:09;;;;;;;7.35;3.42;;;;;;;11.23;58.91;102118.88;4974653;28;20027;-85
2022/04/10 08:10:37;;;;;;;11.90;3.85;;;;;;;11.25;55.47;102132.72;4984991;28;20383;-85
2022/04/10 08:13:02;;;;;;;10.85;3.30;;;;;;;10.93;57.08;102143.25;4980851;28;20161;-85
2022/04/10 08:15:28;;;;;;;10.57;3.20;;;;;;;10.28;56.11;102151.22;4982968;28;20117;-85
2022/04/10 08:17:53;;;;;;;10.52;3.42;;;;;;;9.57;59.05;102152.06;4972373;28;20026;-85
2022/04/10 08:20:18;;;;;;;8.63;3.30;;;;;;;8.92;59.60;102155.34;4980309;28;20100;-85
2022/04/10 08:22:48;;;;;;;9.20;2.53;;;;;;;9.02;62.74;102153.63;4979968;28;20061;-84
2022/04/10 08:25:16;;;;;;;7.60;2.92;;;;;;;9.71;62.55;102142.56;4975898;28;20023;-84
2022/04/10 08:27:41;;;;;;;5.70;2.50;;;;;;;10.69;63.87;102144.22;4972011;28;20031;-84
2022/04/10 08:30:12;;;;;;;8.60;2.50;;;;;;;11.56;59.50;102151.56;4966930;28;20034;-85
2022/04/10 08:32:39;;;;;;;9.63;2.47;;;;;;;12.20;59.24;102140.69;4984040;28;20436;-85
2022/04/10 08:35:05;;;;;;;7.32;2.60;;;;;;;12.64;55.35;102151.47;4976968;28;20504;-85
2022/04/10 08:37:31;;;;;;;9.63;2.45;;;;;;;13.16;56.36;102147.41;4972330;28;20057;-85
2022/04/10 08:39:56;;;;;;;12.07;3.15;;;;;;;13.54;51.59;102154.66;4972309;28;20034;-85
2022/04/10 08:42:22;;;;;;;7.18;2.97;;;;;;;13.81;50.11;102152.50;4975850;28;20019;-85
2022/04/10 08:44:47;;;;;;;6.50;2.88;;;;;;;13.99;48.27;102150.50;4976875;28;20023;-85
2022/04/10 08:47:15;;;;;;;7.95;2.72;;;;;;;14.09;51.76;102155.50;4975185;28;20524;-85
2022/04/10 08:49:40;;;;;;;7.82;3.00;;;;;;;13.72;49.18;102155.25;4984417;28;20498;-85
2022/04/10 08:52:07;;;;;;;8.85;2.78;;;;;;;13.69;52.89;102154.44;4972357;28;20038;-84
2022/04/10 08:54:34;;;;;;;8.13;2.70;;;;;;;13.62;50.39;102161.50;4971655;28;20109;-84
2022/04/10 08:57:01;;;;;;;7.43;2.75;;;;;;;13.68;51.67;102155.31;4972185;28;20034;-84
2022/04/10 08:59:27;;;;;;;7.55;2.63;;;;;;;13.86;50.02;102155.00;4978750;28;20044;-85
2022/04/10 09:01:53;;;;;;;7.50;2.70;;;;;;;13.94;49.83;102163.56;4991598;28;20105;-85
2022/04/10 09:04:20;;;;;;;8.32;2.88;;;;;;;13.91;52.92;102158.44;4984133;28;20290;-85
2022/04/10 09:06:57;;;;;;;9.25;2.97;;;;;;;13.90;54.50;102156.72;4972202;28;20456;-85
2022/04/10 09:09:23;;;;;;;6.75;2.78;;;;;;;13.92;52.14;102157.53;4972229;28;20106;-85
2022/04/10 09:11:51;;;;;;;8.65;2.92;;;;;;;14.02;51.34;102156.50;4969488;28;20429;-85
2022/04/10 09:14:25;;;;;;;9.57;2.60;;;;;;;14.16;52.10;102158.88;4971304;28;20027;-84
2022/04/10 09:17:16;;;;;;;5.90;2.45;;;;;;;14.26;50.58;102159.56;4970352;28;20085;-85
2022/04/10 09:19:43;;;;;;;6.65;2.20;;;;;;;14.17;48.97;102163.19;4974410;28;20033;-84
2022/04/10 09:22:28;;;;;;;7.32;2.55;;;;;;;13.91;48.07;102163.66;4980936;28;20026;-85
2022/04/10 09:25:11;;;;;;;6.53;2.40;;;;;;;13.81;52.64;102155.09;4972749;28;20060;-85
2022/04/10 09:27:43;;;;;;;7.57;2.50;;;;;;;13.94;49.60;102154.91;4971375;28;20023;-85
2022/04/10 09:30:11;;;;;;;8.48;2.38;;;;;;;13.74;46.71;102157.81;4978714;28;20035;-85
2022/04/10 09:32:55;;;;;;;8.55;2.38;;;;;;;13.70;49.98;102164.84;4973600;28;20027;-85
2022/04/10 09:35:23;;;;;;;5.53;2.23;;;;;;;13.58;48.35;102161.56;4973421;28;20053;-85
2022/04/10 09:37:56;;;;;;;9.25;2.22;;;;;;;13.56;49.70;102147.69;4986245;28;20030;-84
2022/04/10 09:40:30;;;;;;;7.18;2.22;;;;;;;13.64;50.02;102157.13;4987157;28;20034;-84
2022/04/10 09:43:04;;;;;;;6.75;2.08;;;;;;;13.74;49.63;102150.00;4971114;28;20025;-84
2022/04/10 09:45:30;;;;;;;4.72;1.70;;;;;;;13.85;48.86;102153.31;4975794;28;20092;-84
2022/04/10 09:47:56;;;;;;;5.10;1.77;;;;;;;13.83;47.00;102155.94;4977417;28;20026;-85
2022/04/10 09:50:30;;;;;;;6.07;1.80;;;;;;;13.83;46.86;102152.47;4975421;28;20426;-84
2022/04/10 09:52:56;;;;;;;;;;;;;;;13.99;49.21;102148.72;4988021;28;20038;-84
2022/04/10 09:55:42;;;;;;;4.53;1.50;;;;;;;14.07;46.54;102153.81;4981861;28;19961;-84
2022/04/10 09:58:10;;;;;;;7.20;2.10;;;;;;;13.76;43.07;102150.84;4974884;28;20400;-85
2022/04/10 10:00:38;;;;;;;7.38;1.90;;;;;;;13.81;46.06;102149.03;4974633;28;20038;-84
2022/04/10 10:03:05;;;;;;;4.65;1.80;;;;;;;14.08;43.65;102151.16;4987762;28;20030;-84
2022/04/10 10:05:31;;;;;;;6.57;2.00;;;;;;;13.87;43.68;102148.94;4976681;28;20061;-85
2022/04/10 10:07:57;;;;;;;8.20;1.83;;;;;;;13.50;43.87;102158.22;4970182;28;20110;-84
2022/04/10 10:10:22;;;;;;;5.63;1.60;;;;;;;13.03;45.09;102157.09;4971271;28;20038;-84
2022/04/10 10:12:48;;;;;;;5.47;1.70;;;;;;;12.53;45.05;102155.94;4989234;28;20030;-84
2022/04/10 10:15:14;;;;;;;5.40;1.80;;;;;;;12.25;47.73;102149.28;4974344;28;20085;-84
2022/04/10 10:17:40;;;;;;;7.47;1.90;;;;;;;12.03;48.08;102152.94;4973498;28;20428;-84
2022/04/10 10:20:06;;;;;;;7.30;1.85;;;;;;;12.04;47.04;102147.75;4983145;28;20038;-84
2022/04/10 10:22:31;;;;;;;4.35;1.70;;;;;;;12.03;47.90;102152.94;4971039;28;20062;-84
2022/04/10 10:25:03;;;;;;;7.65;1.90;;;;;;;11.67;46.95;102152.34;4979740;28;20403;-84
2022/04/10 10:28:06;;;;;;;6.65;1.50;;;;;;;11.40;47.69;102149.91;4979824;28;20039;-84
2022/04/10 10:30:53;;;;;;;7.05;1.60;;;;;;;10.92;48.91;102151.03;4975349;28;20031;-84
2022/04/10 10:33:23;;;;;;;5.55;1.70;;;;;;;10.81;50.67;102145.91;4968765;28;20070;-85
2022/04/10 10:35:50;;;;;;;4.05;1.80;;;;;;;11.02;49.45;102145.81;4973395;28;20023;-84
2022/04/10 10:38:24;;;;;;;8.43;2.00;;;;;;;11.38;48.81;102139.56;4974251;28;20037;-84
2022/04/10 10:40:51;;;;;;;4.95;1.50;;;;;;;11.74;47.54;102140.19;4973989;28;20241;-84
2022/04/10 10:43:23;;;;;;;7.53;2.00;;;;;;;11.71;48.77;102133.28;4974012;28;20031;-84
2022/04/10 10:45:50;;;;;;;7.45;1.80;;;;;;;11.49;45.62;102148.13;5005277;28;20166;-84
2022/04/10 10:48:31;;;;;;;4.35;1.70;;;;;;;11.26;50.03;102144.81;4974208;28;20270;-84
2022/04/10 10:51:01;;;;;;;5.28;1.50;;;;;;;11.41;49.07;102141.25;4973697;28;20083;-84
2022/04/10 10:53:51;;;;;;;5.30;1.77;;;;;;;11.80;49.98;102137.56;4973385;28;20070;-84
2022/04/10 10:56:21;;;;;;;3.72;1.70;;;;;;;11.99;46.64;102146.06;4977995;28;20308;-84
2022/04/10 10:58:48;;;;;;;4.20;1.63;;;;;;;11.99;45.68;102146.06;4973799;28;20502;-84
2022/04/10 11:01:24;;;;;;;5.40;1.55;;;;;;;11.83;45.92;102143.59;4973668;28;20042;-84
2022/04/10 11:04:03;;;;;;;3.67;1.35;;;;;;;11.77;46.26;102141.03;4973480;28;20037;-84
2022/04/10 11:06:30;;;;;;;5.03;1.40;;;;;;;12.01;44.61;102141.72;4973652;28;20507;-84
2022/04/10 11:09:15;;;;;;;4.80;1.50;;;;;;;12.22;42.46;102144.09;4972344;28;20035;-84
2022/04/10 11:11:41;;;;;;;6.05;1.80;;;;;;;12.64;43.80;102142.81;4967347;28;20041;-84
2022/04/10 11:14:27;;;;;;;5.20;1.50;;;;;;;12.89;43.50;102138.19;4973843;28;20400;-84
2022/04/10 11:16:53;;;;;;;5.25;1.60;;;;;;;12.92;41.69;102136.38;4973304;28;20034;-84
2022/04/10 11:19:23;;;;;;;3.72;1.50;;;;;;;12.89;44.08;102133.84;4973293;28;20027;-84
2022/04/10 11:21:48;;;;;;;4.95;1.88;;;;;;;12.75;43.82;102140.09;4973667;28;20169;-84
2022/04/10 11:24:22;;;;;;;4.47;2.00;;;;;;;12.51;44.93;102136.88;4973678;28;20102;-84